sensor_id;sensor_type;location;lat;lon;timestamp;P1;durP1;ratioP1;P2;durP2;ratioP2
14890;SDS011;7537;48.014;11.590;2023-04-15T00:00:09;4.84;;;3.58;;
14890;SDS011;7537;48.014;11.590;2023-04-15T00:05:37;5.19;;;3.43;;
14890;SDS011;7537;48.014;11.590;2023-04-15T00:11:04;5.91;;;3.28;;
14890;SDS011;7537;48.014;11.590;2023-04-15T00:16:35;5.39;;;3.77;;
14890;SDS011;7537;48.014;11.590;2023-04-15T00:22:04;3.29;;;2.90;;
14890;SDS011;7537;48.014;11.590;2023-04-15T00:27:32;6.86;;;3.24;;
14890;SDS011;7537;48.014;11.590;2023-04-15T00:32:59;3.27;;;3.21;;
14890;SDS011;7537;48.014;11.590;2023-04-15T00:38:26;5.83;;;3.86;;
14890;SDS011;7537;48.014;11.590;2023-04-15T00:43:54;4.76;;;3.45;;
14890;SDS011;7537;48.014;11.590;2023-04-15T00:49:25;9.49;;;4.76;;
14890;SDS011;7537;48.014;11.590;2023-04-15T00:54:53;4.61;;;3.41;;
14890;SDS011;7537;48.014;11.590;2023-04-15T01:00:21;5.04;;;3.68;;
14890;SDS011;7537;48.014;11.590;2023-04-15T01:05:48;5.79;;;3.64;;
14890;SDS011;7537;48.014;11.590;2023-04-15T01:11:15;6.22;;;4.13;;
14890;SDS011;7537;48.014;11.590;2023-04-15T01:16:43;6.39;;;4.17;;
14890;SDS011;7537;48.014;11.590;2023-04-15T01:22:11;8.21;;;3.54;;
14890;SDS011;7537;48.014;11.590;2023-04-15T01:27:38;5.01;;;3.56;;
14890;SDS011;7537;48.014;11.590;2023-04-15T01:33:07;6.37;;;4.20;;
14890;SDS011;7537;48.014;11.590;2023-04-15T01:38:35;5.84;;;4.09;;
14890;SDS011;7537;48.014;11.590;2023-04-15T01:44:02;5.31;;;3.89;;
14890;SDS011;7537;48.014;11.590;2023-04-15T01:49:34;6.01;;;4.40;;
14890;SDS011;7537;48.014;11.590;2023-04-15T01:55:01;4.79;;;4.81;;
14890;SDS011;7537;48.014;11.590;2023-04-15T02:00:28;5.95;;;4.26;;
14890;SDS011;7537;48.014;11.590;2023-04-15T02:05:56;6.32;;;3.69;;
14890;SDS011;7537;48.014;11.590;2023-04-15T02:11:24;4.87;;;4.29;;
14890;SDS011;7537;48.014;11.590;2023-04-15T02:16:51;7.81;;;4.13;;
14890;SDS011;7537;48.014;11.590;2023-04-15T02:22:20;3.56;;;3.64;;
14890;SDS011;7537;48.014;11.590;2023-04-15T02:27:48;4.64;;;4.13;;
14890;SDS011;7537;48.014;11.590;2023-04-15T02:33:15;7.42;;;4.00;;
14890;SDS011;7537;48.014;11.590;2023-04-15T02:38:43;4.53;;;4.52;;
14890;SDS011;7537;48.014;11.590;2023-04-15T02:44:10;4.17;;;4.05;;
14890;SDS011;7537;48.014;11.590;2023-04-15T02:49:46;6.61;;;3.89;;
14890;SDS011;7537;48.014;11.590;2023-04-15T02:55:13;4.01;;;3.23;;
14890;SDS011;7537;48.014;11.590;2023-04-15T03:00:41;6.97;;;3.66;;
14890;SDS011;7537;48.014;11.590;2023-04-15T03:06:08;4.03;;;3.28;;
14890;SDS011;7537;48.014;11.590;2023-04-15T03:11:37;5.01;;;3.46;;
14890;SDS011;7537;48.014;11.590;2023-04-15T03:17:05;3.82;;;3.44;;
14890;SDS011;7537;48.014;11.590;2023-04-15T03:22:33;5.67;;;3.33;;
14890;SDS011;7537;48.014;11.590;2023-04-15T03:28:00;5.81;;;3.28;;
14890;SDS011;7537;48.014;11.590;2023-04-15T03:33:28;5.11;;;3.26;;
14890;SDS011;7537;48.014;11.590;2023-04-15T03:38:56;4.94;;;3.52;;
14890;SDS011;7537;48.014;11.590;2023-04-15T03:44:25;3.43;;;3.31;;
14890;SDS011;7537;48.014;11.590;2023-04-15T03:49:56;2.60;;;2.72;;
14890;SDS011;7537;48.014;11.590;2023-04-15T03:55:26;3.19;;;3.22;;
14890;SDS011;7537;48.014;11.590;2023-04-15T04:00:54;4.36;;;3.69;;
14890;SDS011;7537;48.014;11.590;2023-04-15T04:06:21;3.47;;;3.28;;
14890;SDS011;7537;48.014;11.590;2023-04-15T04:11:49;7.24;;;3.29;;
14890;SDS011;7537;48.014;11.590;2023-04-15T04:17:18;5.49;;;3.03;;
14890;SDS011;7537;48.014;11.590;2023-04-15T04:22:46;4.25;;;3.20;;
14890;SDS011;7537;48.014;11.590;2023-04-15T04:28:13;3.79;;;2.44;;
14890;SDS011;7537;48.014;11.590;2023-04-15T04:33:41;2.98;;;2.80;;
14890;SDS011;7537;48.014;11.590;2023-04-15T04:39:08;5.99;;;2.76;;
14890;SDS011;7537;48.014;11.590;2023-04-15T04:44:36;3.81;;;2.52;;
14890;SDS011;7537;48.014;11.590;2023-04-15T04:50:08;3.30;;;2.46;;
14890;SDS011;7537;48.014;11.590;2023-04-15T04:55:39;4.57;;;2.94;;
14890;SDS011;7537;48.014;11.590;2023-04-15T05:01:07;5.04;;;3.07;;
14890;SDS011;7537;48.014;11.590;2023-04-15T05:06:34;3.73;;;2.46;;
14890;SDS011;7537;48.014;11.590;2023-04-15T05:12:02;4.02;;;2.60;;
14890;SDS011;7537;48.014;11.590;2023-04-15T05:17:31;7.74;;;3.24;;
14890;SDS011;7537;48.014;11.590;2023-04-15T05:22:58;4.76;;;2.47;;
14890;SDS011;7537;48.014;11.590;2023-04-15T05:28:26;2.99;;;2.78;;
14890;SDS011;7537;48.014;11.590;2023-04-15T05:33:53;4.52;;;2.84;;
14890;SDS011;7537;48.014;11.590;2023-04-15T05:39:21;2.85;;;2.26;;
14890;SDS011;7537;48.014;11.590;2023-04-15T05:44:48;3.56;;;2.81;;
14890;SDS011;7537;48.014;11.590;2023-04-15T05:50:22;6.59;;;1.99;;
14890;SDS011;7537;48.014;11.590;2023-04-15T05:55:49;7.36;;;2.51;;
14890;SDS011;7537;48.014;11.590;2023-04-15T06:01:17;3.82;;;2.22;;
14890;SDS011;7537;48.014;11.590;2023-04-15T06:06:44;2.22;;;1.95;;
14890;SDS011;7537;48.014;11.590;2023-04-15T06:12:13;3.82;;;2.12;;
14890;SDS011;7537;48.014;11.590;2023-04-15T06:17:43;3.78;;;1.92;;
14890;SDS011;7537;48.014;11.590;2023-04-15T06:23:16;4.15;;;2.28;;
14890;SDS011;7537;48.014;11.590;2023-04-15T06:28:43;3.63;;;1.86;;
14890;SDS011;7537;48.014;11.590;2023-04-15T06:34:11;3.14;;;1.97;;
14890;SDS011;7537;48.014;11.590;2023-04-15T06:39:39;3.99;;;1.64;;
14890;SDS011;7537;48.014;11.590;2023-04-15T06:45:11;2.17;;;1.33;;
14890;SDS011;7537;48.014;11.590;2023-04-15T06:50:42;3.80;;;1.65;;
14890;SDS011;7537;48.014;11.590;2023-04-15T06:56:10;1.87;;;1.78;;
14890;SDS011;7537;48.014;11.590;2023-04-15T07:01:38;3.87;;;2.06;;
14890;SDS011;7537;48.014;11.590;2023-04-15T07:07:05;1.86;;;1.50;;
14890;SDS011;7537;48.014;11.590;2023-04-15T07:12:33;2.47;;;1.62;;
14890;SDS011;7537;48.014;11.590;2023-04-15T07:18:05;4.88;;;1.88;;
14890;SDS011;7537;48.014;11.590;2023-04-15T07:23:32;1.94;;;1.29;;
14890;SDS011;7537;48.014;11.590;2023-04-15T07:29:00;4.77;;;1.46;;
14890;SDS011;7537;48.014;11.590;2023-04-15T07:34:28;1.21;;;1.19;;
14890;SDS011;7537;48.014;11.590;2023-04-15T07:39:56;1.51;;;1.14;;
14890;SDS011;7537;48.014;11.590;2023-04-15T07:45:26;4.22;;;1.18;;
14890;SDS011;7537;48.014;11.590;2023-04-15T07:51:01;2.12;;;1.24;;
14890;SDS011;7537;48.014;11.590;2023-04-15T07:56:29;3.77;;;1.33;;
14890;SDS011;7537;48.014;11.590;2023-04-15T08:01:58;3.32;;;1.45;;
14890;SDS011;7537;48.014;11.590;2023-04-15T08:07:26;3.78;;;1.37;;
14890;SDS011;7537;48.014;11.590;2023-04-15T08:12:54;3.14;;;1.89;;
14890;SDS011;7537;48.014;11.590;2023-04-15T08:18:21;2.30;;;1.40;;
14890;SDS011;7537;48.014;11.590;2023-04-15T08:23:50;3.83;;;1.67;;
14890;SDS011;7537;48.014;11.590;2023-04-15T08:29:17;6.31;;;1.51;;
14890;SDS011;7537;48.014;11.590;2023-04-15T08:34:45;1.99;;;1.39;;
14890;SDS011;7537;48.014;11.590;2023-04-15T08:40:14;1.86;;;1.24;;
14890;SDS011;7537;48.014;11.590;2023-04-15T08:45:42;1.14;;;1.18;;
14890;SDS011;7537;48.014;11.590;2023-04-15T08:51:18;4.26;;;1.55;;
14890;SDS011;7537;48.014;11.590;2023-04-15T08:56:49;2.37;;;1.74;;
14890;SDS011;7537;48.014;11.590;2023-04-15T09:02:18;2.82;;;1.89;;
14890;SDS011;7537;48.014;11.590;2023-04-15T09:07:45;3.04;;;2.41;;
14890;SDS011;7537;48.014;11.590;2023-04-15T09:13:13;3.32;;;2.34;;
14890;SDS011;7537;48.014;11.590;2023-04-15T09:18:40;2.68;;;2.02;;
14890;SDS011;7537;48.014;11.590;2023-04-15T09:24:09;2.99;;;2.71;;
14890;SDS011;7537;48.014;11.590;2023-04-15T09:29:37;2.53;;;1.93;;
14890;SDS011;7537;48.014;11.590;2023-04-15T09:35:10;5.60;;;2.61;;
14890;SDS011;7537;48.014;11.590;2023-04-15T09:40:39;3.59;;;2.23;;
14890;SDS011;7537;48.014;11.590;2023-04-15T09:46:06;2.41;;;2.41;;
14890;SDS011;7537;48.014;11.590;2023-04-15T09:51:37;2.02;;;2.04;;
14890;SDS011;7537;48.014;11.590;2023-04-15T09:57:05;2.96;;;2.00;;
14890;SDS011;7537;48.014;11.590;2023-04-15T10:02:33;4.83;;;2.53;;
14890;SDS011;7537;48.014;11.590;2023-04-15T10:08:01;5.99;;;1.85;;
14890;SDS011;7537;48.014;11.590;2023-04-15T10:13:29;3.61;;;2.19;;
14890;SDS011;7537;48.014;11.590;2023-04-15T10:18:57;2.74;;;1.95;;
14890;SDS011;7537;48.014;11.590;2023-04-15T10:24:28;1.96;;;1.79;;
14890;SDS011;7537;48.014;11.590;2023-04-15T10:29:59;3.95;;;1.83;;
14890;SDS011;7537;48.014;11.590;2023-04-15T10:35:28;2.53;;;2.16;;
14890;SDS011;7537;48.014;11.590;2023-04-15T10:41:00;4.19;;;2.70;;
14890;SDS011;7537;48.014;11.590;2023-04-15T10:46:38;8.18;;;2.94;;
14890;SDS011;7537;48.014;11.590;2023-04-15T10:52:09;4.53;;;2.21;;
14890;SDS011;7537;48.014;11.590;2023-04-15T10:57:38;4.39;;;2.22;;
14890;SDS011;7537;48.014;11.590;2023-04-15T11:03:07;1.53;;;1.31;;
14890;SDS011;7537;48.014;11.590;2023-04-15T11:08:53;2.31;;;1.99;;
14890;SDS011;7537;48.014;11.590;2023-04-15T11:14:20;3.31;;;2.28;;
14890;SDS011;7537;48.014;11.590;2023-04-15T11:19:48;5.53;;;2.66;;
14890;SDS011;7537;48.014;11.590;2023-04-15T11:25:22;5.62;;;3.50;;
14890;SDS011;7537;48.014;11.590;2023-04-15T11:30:51;2.96;;;2.75;;
14890;SDS011;7537;48.014;11.590;2023-04-15T11:36:18;6.19;;;3.66;;
14890;SDS011;7537;48.014;11.590;2023-04-15T11:41:46;5.05;;;3.30;;
14890;SDS011;7537;48.014;11.590;2023-04-15T11:47:22;6.22;;;2.59;;
14890;SDS011;7537;48.014;11.590;2023-04-15T11:52:53;4.55;;;2.54;;
14890;SDS011;7537;48.014;11.590;2023-04-15T11:58:21;3.00;;;2.46;;
14890;SDS011;7537;48.014;11.590;2023-04-15T12:03:49;2.26;;;2.36;;
14890;SDS011;7537;48.014;11.590;2023-04-15T12:09:16;3.65;;;2.58;;
14890;SDS011;7537;48.014;11.590;2023-04-15T12:14:44;3.79;;;3.04;;
14890;SDS011;7537;48.014;11.590;2023-04-15T12:20:13;4.17;;;3.19;;
14890;SDS011;7537;48.014;11.590;2023-04-15T12:25:42;8.18;;;3.48;;
14890;SDS011;7537;48.014;11.590;2023-04-15T12:31:11;6.54;;;3.69;;
14890;SDS011;7537;48.014;11.590;2023-04-15T12:37:08;5.57;;;3.99;;
14890;SDS011;7537;48.014;11.590;2023-04-15T12:42:35;4.46;;;3.87;;
14890;SDS011;7537;48.014;11.590;2023-04-15T12:48:05;4.83;;;3.27;;
14890;SDS011;7537;48.014;11.590;2023-04-15T12:53:38;3.67;;;3.28;;
14890;SDS011;7537;48.014;11.590;2023-04-15T12:59:05;3.56;;;3.11;;
14890;SDS011;7537;48.014;11.590;2023-04-15T13:04:32;2.50;;;2.60;;
14890;SDS011;7537;48.014;11.590;2023-04-15T13:10:00;3.22;;;2.69;;
14890;SDS011;7537;48.014;11.590;2023-04-15T13:15:30;2.11;;;2.14;;
14890;SDS011;7537;48.014;11.590;2023-04-15T13:20:57;1.77;;;1.78;;
14890;SDS011;7537;48.014;11.590;2023-04-15T13:26:25;3.50;;;2.69;;
14890;SDS011;7537;48.014;11.590;2023-04-15T13:31:52;3.24;;;2.29;;
14890;SDS011;7537;48.014;11.590;2023-04-15T13:37:25;2.99;;;2.78;;
14890;SDS011;7537;48.014;11.590;2023-04-15T13:42:53;3.50;;;2.87;;
14890;SDS011;7537;48.014;11.590;2023-04-15T13:48:20;4.24;;;2.81;;
14890;SDS011;7537;48.014;11.590;2023-04-15T13:53:51;2.81;;;2.81;;
14890;SDS011;7537;48.014;11.590;2023-04-15T13:59:19;2.94;;;2.44;;
14890;SDS011;7537;48.014;11.590;2023-04-15T14:04:46;2.03;;;2.12;;
14890;SDS011;7537;48.014;11.590;2023-04-15T14:10:13;3.12;;;2.39;;
14890;SDS011;7537;48.014;11.590;2023-04-15T14:15:44;3.87;;;2.77;;
14890;SDS011;7537;48.014;11.590;2023-04-15T14:21:11;5.74;;;3.47;;
14890;SDS011;7537;48.014;11.590;2023-04-15T14:26:38;6.63;;;3.45;;
14890;SDS011;7537;48.014;11.590;2023-04-15T14:32:06;3.13;;;3.25;;
14890;SDS011;7537;48.014;11.590;2023-04-15T14:37:33;4.34;;;3.11;;
14890;SDS011;7537;48.014;11.590;2023-04-15T14:43:01;3.99;;;3.44;;
14890;SDS011;7537;48.014;11.590;2023-04-15T14:48:29;3.75;;;2.53;;
14890;SDS011;7537;48.014;11.590;2023-04-15T14:54:05;2.64;;;2.60;;
14890;SDS011;7537;48.014;11.590;2023-04-15T14:59:36;2.46;;;2.54;;
14890;SDS011;7537;48.014;11.590;2023-04-15T15:05:03;2.09;;;2.20;;
14890;SDS011;7537;48.014;11.590;2023-04-15T15:10:31;5.32;;;2.56;;
14890;SDS011;7537;48.014;11.590;2023-04-15T15:15:58;5.39;;;3.43;;
14890;SDS011;7537;48.014;11.590;2023-04-15T15:21:26;4.53;;;3.02;;
14890;SDS011;7537;48.014;11.590;2023-04-15T15:26:55;3.49;;;2.99;;
14890;SDS011;7537;48.014;11.590;2023-04-15T15:32:22;3.29;;;3.28;;
14890;SDS011;7537;48.014;11.590;2023-04-15T15:37:49;2.57;;;2.59;;
14890;SDS011;7537;48.014;11.590;2023-04-15T15:43:17;3.51;;;3.68;;
14890;SDS011;7537;48.014;11.590;2023-04-15T15:48:44;9.34;;;3.62;;
14890;SDS011;7537;48.014;11.590;2023-04-15T15:54:16;4.72;;;4.08;;
14890;SDS011;7537;48.014;11.590;2023-04-15T15:59:44;5.07;;;4.07;;
14890;SDS011;7537;48.014;11.590;2023-04-15T16:05:11;5.38;;;4.77;;
14890;SDS011;7537;48.014;11.590;2023-04-15T16:10:38;3.43;;;3.61;;
14890;SDS011;7537;48.014;11.590;2023-04-15T16:16:06;4.72;;;3.93;;
14890;SDS011;7537;48.014;11.590;2023-04-15T16:21:33;6.47;;;3.61;;
14890;SDS011;7537;48.014;11.590;2023-04-15T16:27:01;3.69;;;3.10;;
14890;SDS011;7537;48.014;11.590;2023-04-15T16:32:28;3.09;;;2.98;;
14890;SDS011;7537;48.014;11.590;2023-04-15T16:37:56;6.77;;;3.39;;
14890;SDS011;7537;48.014;11.590;2023-04-15T16:43:23;3.94;;;3.01;;
14890;SDS011;7537;48.014;11.590;2023-04-15T16:48:51;3.84;;;2.85;;
14890;SDS011;7537;48.014;11.590;2023-04-15T16:54:21;3.04;;;2.91;;
14890;SDS011;7537;48.014;11.590;2023-04-15T16:59:49;3.56;;;2.56;;
14890;SDS011;7537;48.014;11.590;2023-04-15T17:05:18;3.91;;;2.81;;
14890;SDS011;7537;48.014;11.590;2023-04-15T17:10:45;3.42;;;2.04;;
14890;SDS011;7537;48.014;11.590;2023-04-15T17:16:13;3.02;;;2.51;;
14890;SDS011;7537;48.014;11.590;2023-04-15T17:21:53;3.07;;;2.71;;
14890;SDS011;7537;48.014;11.590;2023-04-15T17:27:21;2.94;;;2.24;;
14890;SDS011;7537;48.014;11.590;2023-04-15T17:32:48;4.21;;;3.41;;
14890;SDS011;7537;48.014;11.590;2023-04-15T17:38:17;3.08;;;2.93;;
14890;SDS011;7537;48.014;11.590;2023-04-15T17:43:44;4.52;;;3.25;;
14890;SDS011;7537;48.014;11.590;2023-04-15T17:49:12;3.86;;;3.38;;
14890;SDS011;7537;48.014;11.590;2023-04-15T17:54:43;3.05;;;3.18;;
14890;SDS011;7537;48.014;11.590;2023-04-15T18:00:13;3.35;;;3.11;;
14890;SDS011;7537;48.014;11.590;2023-04-15T18:05:40;4.55;;;3.54;;
14890;SDS011;7537;48.014;11.590;2023-04-15T18:11:08;2.79;;;3.00;;
14890;SDS011;7537;48.014;11.590;2023-04-15T18:16:35;4.22;;;3.44;;
14890;SDS011;7537;48.014;11.590;2023-04-15T18:22:06;4.76;;;4.76;;
14890;SDS011;7537;48.014;11.590;2023-04-15T18:27:35;6.16;;;4.38;;
14890;SDS011;7537;48.014;11.590;2023-04-15T18:33:03;5.72;;;5.37;;
14890;SDS011;7537;48.014;11.590;2023-04-15T18:38:30;6.16;;;4.92;;
14890;SDS011;7537;48.014;11.590;2023-04-15T18:43:58;4.28;;;4.15;;
14890;SDS011;7537;48.014;11.590;2023-04-15T18:49:25;4.24;;;4.14;;
14890;SDS011;7537;48.014;11.590;2023-04-15T18:54:56;6.63;;;4.32;;
14890;SDS011;7537;48.014;11.590;2023-04-15T19:00:24;5.84;;;4.21;;
14890;SDS011;7537;48.014;11.590;2023-04-15T19:05:55;3.59;;;3.67;;
14890;SDS011;7537;48.014;11.590;2023-04-15T19:11:24;3.21;;;3.30;;
14890;SDS011;7537;48.014;11.590;2023-04-15T19:16:51;5.61;;;3.85;;
14890;SDS011;7537;48.014;11.590;2023-04-15T19:22:19;4.26;;;4.19;;
14890;SDS011;7537;48.014;11.590;2023-04-15T19:27:46;6.68;;;4.59;;
14890;SDS011;7537;48.014;11.590;2023-04-15T19:33:14;5.51;;;4.29;;
14890;SDS011;7537;48.014;11.590;2023-04-15T19:38:41;4.50;;;4.03;;
14890;SDS011;7537;48.014;11.590;2023-04-15T19:44:09;3.20;;;3.31;;
14890;SDS011;7537;48.014;11.590;2023-04-15T19:49:36;3.78;;;3.61;;
14890;SDS011;7537;48.014;11.590;2023-04-15T19:55:08;4.78;;;4.00;;
14890;SDS011;7537;48.014;11.590;2023-04-15T20:00:35;4.66;;;3.35;;
14890;SDS011;7537;48.014;11.590;2023-04-15T20:06:03;5.80;;;3.49;;
14890;SDS011;7537;48.014;11.590;2023-04-15T20:11:31;6.81;;;3.61;;
14890;SDS011;7537;48.014;11.590;2023-04-15T20:16:58;6.92;;;4.43;;
14890;SDS011;7537;48.014;11.590;2023-04-15T20:22:28;4.05;;;3.89;;
14890;SDS011;7537;48.014;11.590;2023-04-15T20:27:55;3.74;;;3.63;;
14890;SDS011;7537;48.014;11.590;2023-04-15T20:33:24;6.31;;;3.49;;
14890;SDS011;7537;48.014;11.590;2023-04-15T20:38:51;4.29;;;4.27;;
14890;SDS011;7537;48.014;11.590;2023-04-15T20:44:19;3.96;;;4.04;;
14890;SDS011;7537;48.014;11.590;2023-04-15T20:49:46;6.42;;;4.94;;
14890;SDS011;7537;48.014;11.590;2023-04-15T20:55:17;4.39;;;4.14;;
14890;SDS011;7537;48.014;11.590;2023-04-15T21:00:45;4.56;;;4.26;;
14890;SDS011;7537;48.014;11.590;2023-04-15T21:06:12;5.83;;;4.94;;
14890;SDS011;7537;48.014;11.590;2023-04-15T21:11:41;6.27;;;4.66;;
14890;SDS011;7537;48.014;11.590;2023-04-15T21:17:11;4.69;;;4.74;;
14890;SDS011;7537;48.014;11.590;2023-04-15T21:22:38;4.58;;;4.61;;
14890;SDS011;7537;48.014;11.590;2023-04-15T21:28:06;10.56;;;5.49;;
14890;SDS011;7537;48.014;11.590;2023-04-15T21:33:34;5.81;;;5.46;;
14890;SDS011;7537;48.014;11.590;2023-04-15T21:39:01;7.82;;;5.71;;
14890;SDS011;7537;48.014;11.590;2023-04-15T21:44:28;4.73;;;4.69;;
14890;SDS011;7537;48.014;11.590;2023-04-15T21:49:56;3.59;;;3.75;;
14890;SDS011;7537;48.014;11.590;2023-04-15T21:55:27;3.69;;;3.78;;
14890;SDS011;7537;48.014;11.590;2023-04-15T22:00:55;6.78;;;5.28;;
14890;SDS011;7537;48.014;11.590;2023-04-15T22:06:25;4.65;;;4.06;;
14890;SDS011;7537;48.014;11.590;2023-04-15T22:11:53;4.53;;;4.40;;
14890;SDS011;7537;48.014;11.590;2023-04-15T22:17:21;9.58;;;3.01;;
14890;SDS011;7537;48.014;11.590;2023-04-15T22:22:49;2.15;;;2.31;;
14890;SDS011;7537;48.014;11.590;2023-04-15T22:28:17;3.33;;;3.32;;
14890;SDS011;7537;48.014;11.590;2023-04-15T22:33:48;2.25;;;2.36;;
14890;SDS011;7537;48.014;11.590;2023-04-15T22:39:17;2.85;;;2.97;;
14890;SDS011;7537;48.014;11.590;2023-04-15T22:44:45;2.84;;;2.96;;
14890;SDS011;7537;48.014;11.590;2023-04-15T22:50:12;2.30;;;2.36;;
14890;SDS011;7537;48.014;11.590;2023-04-15T22:55:44;2.88;;;2.98;;
14890;SDS011;7537;48.014;11.590;2023-04-15T23:01:19;3.36;;;3.51;;
14890;SDS011;7537;48.014;11.590;2023-04-15T23:06:47;3.16;;;3.10;;
14890;SDS011;7537;48.014;11.590;2023-04-15T23:12:14;3.35;;;3.44;;
14890;SDS011;7537;48.014;11.590;2023-04-15T23:17:42;3.08;;;3.22;;
14890;SDS011;7537;48.014;11.590;2023-04-15T23:23:09;3.21;;;3.26;;
14890;SDS011;7537;48.014;11.590;2023-04-15T23:28:37;2.97;;;2.88;;
14890;SDS011;7537;48.014;11.590;2023-04-15T23:34:04;3.12;;;3.29;;
14890;SDS011;7537;48.014;11.590;2023-04-15T23:39:33;2.82;;;3.01;;
14890;SDS011;7537;48.014;11.590;2023-04-15T23:45:01;2.81;;;2.91;;
14890;SDS011;7537;48.014;11.590;2023-04-15T23:50:31;2.53;;;2.67;;
14890;SDS011;7537;48.014;11.590;2023-04-15T23:56:03;3.10;;;3.25;;
